createdAt,value
2023-07-20T00:01:31.457Z,2.30
2023-07-20T00:04:01.140Z,2.50
2023-07-20T00:06:31.222Z,2.25
2023-07-20T00:09:00.794Z,2.50
2023-07-20T00:11:31.062Z,2.10
2023-07-20T00:14:00.678Z,2.70
2023-07-20T00:16:32.840Z,2.47
2023-07-20T00:19:02.428Z,2.20
2023-07-20T00:21:32.040Z,2.50
2023-07-20T00:24:01.689Z,2.45
2023-07-20T00:26:31.354Z,2.53
2023-07-20T00:29:01.094Z,2.38
2023-07-20T00:31:33.302Z,2.55
2023-07-20T00:34:02.899Z,2.30
2023-07-20T00:36:32.456Z,2.22
2023-07-20T00:39:02.124Z,2.45
2023-07-20T00:41:33.087Z,2.15
2023-07-20T00:46:34.683Z,2.40
2023-07-20T00:49:04.530Z,2.40
2023-07-20T00:51:34.092Z,2.35
2023-07-20T00:54:04.056Z,2.30
2023-07-20T00:56:33.791Z,2.20
2023-07-20T00:59:03.373Z,2.17
2023-07-20T01:01:35.607Z,2.67
2023-07-20T01:04:05.847Z,2.55
2023-07-20T01:06:40.252Z,2.22
2023-07-20T01:09:14.896Z,2.10
2023-07-20T01:11:47.645Z,2.50
2023-07-20T01:14:17.302Z,2.30
2023-07-20T01:16:51.081Z,2.22
2023-07-20T01:19:20.794Z,2.58
2023-07-20T01:21:55.444Z,2.40
2023-07-20T01:24:43.766Z,2.22
2023-07-20T01:27:46.107Z,2.30
2023-07-20T01:30:28.921Z,2.50
2023-07-20T01:33:01.274Z,2.42
2023-07-20T01:35:32.437Z,2.30
2023-07-20T01:38:02.018Z,2.30
2023-07-20T01:40:31.597Z,2.33
2023-07-20T01:43:01.170Z,2.35
2023-07-20T01:45:30.927Z,2.35
2023-07-20T01:48:03.122Z,2.50
2023-07-20T01:50:32.711Z,2.40
2023-07-20T01:53:02.270Z,2.38
2023-07-20T01:55:31.818Z,2.22
2023-07-20T01:58:02.989Z,2.45
2023-07-20T02:00:32.624Z,2.30
2023-07-20T02:03:04.836Z,2.30
2023-07-20T02:05:34.493Z,2.30
2023-07-20T02:08:04.056Z,2.25
2023-07-20T02:10:33.625Z,2.20
2023-07-20T02:13:03.342Z,2.22
2023-07-20T02:15:32.905Z,2.40
2023-07-20T02:18:05.106Z,2.35
2023-07-20T02:20:34.721Z,2.30
2023-07-20T02:23:04.423Z,2.67
2023-07-20T02:25:34.071Z,2.22
2023-07-20T02:28:03.696Z,2.17
2023-07-20T02:30:33.292Z,2.72
2023-07-20T02:33:06.681Z,2.40
2023-07-20T02:35:36.323Z,2.30
2023-07-20T02:38:05.883Z,2.40
2023-07-20T02:40:35.454Z,2.50
2023-07-20T02:43:05.012Z,2.40
2023-07-20T02:45:34.574Z,2.42
2023-07-20T02:48:09.271Z,2.40
2023-07-20T02:50:39.004Z,2.40
2023-07-20T02:53:08.906Z,2.55
2023-07-20T02:55:38.502Z,2.50
2023-07-20T02:58:08.092Z,2.60
2023-07-20T03:00:37.669Z,2.50
2023-07-20T03:03:11.171Z,2.60
2023-07-20T03:05:41.855Z,2.70
2023-07-20T03:08:11.460Z,2.63
2023-07-20T03:10:44.401Z,2.40
2023-07-20T03:13:14.070Z,2.20
2023-07-20T03:15:44.068Z,2.60
2023-07-20T03:18:16.233Z,2.42
2023-07-20T03:20:46.199Z,2.67
2023-07-20T03:23:16.298Z,2.53
2023-07-20T03:25:45.865Z,2.40
2023-07-20T03:28:15.421Z,2.30
2023-07-20T03:30:45.012Z,2.50
2023-07-20T03:33:17.197Z,2.40
2023-07-20T03:35:46.868Z,2.75
2023-07-20T03:38:16.424Z,2.40
2023-07-20T03:40:53.276Z,2.58
2023-07-20T03:43:22.888Z,2.60
2023-07-20T03:45:52.755Z,2.67
2023-07-20T03:48:26.207Z,2.40
2023-07-20T03:50:56.531Z,2.33
2023-07-20T03:53:26.091Z,2.78
2023-07-20T03:55:56.272Z,2.47
2023-07-20T03:58:25.840Z,2.47
2023-07-20T04:00:55.829Z,2.30
2023-07-20T04:03:28.827Z,2.35
2023-07-20T04:05:58.988Z,2.50
2023-07-20T04:08:28.565Z,2.47
2023-07-20T04:10:58.407Z,2.40
2023-07-20T04:13:27.999Z,2.45
2023-07-20T04:15:57.571Z,2.50
2023-07-20T04:18:29.737Z,2.53
2023-07-20T04:20:59.348Z,2.40
2023-07-20T04:23:28.982Z,2.60
2023-07-20T04:25:58.548Z,2.50
2023-07-20T04:28:28.160Z,2.60
2023-07-20T04:30:57.792Z,2.83
2023-07-20T04:33:30.352Z,2.63
2023-07-20T04:35:59.942Z,2.65
2023-07-20T04:38:29.546Z,2.70
2023-07-20T04:40:59.143Z,2.40
2023-07-20T04:43:28.747Z,2.58
2023-07-20T04:45:58.369Z,2.67
2023-07-20T04:48:30.604Z,2.65
2023-07-20T04:51:00.177Z,2.75
2023-07-20T04:53:29.750Z,2.60
2023-07-20T04:55:59.349Z,2.60
2023-07-20T04:58:28.939Z,2.70
2023-07-20T05:00:58.508Z,2.50
2023-07-20T05:03:30.906Z,2.85
2023-07-20T05:06:01.003Z,2.80
2023-07-20T05:08:30.625Z,2.90
2023-07-20T05:11:00.225Z,2.65
2023-07-20T05:13:29.792Z,2.70
2023-07-20T05:15:59.404Z,2.60
2023-07-20T05:18:32.026Z,2.70
2023-07-20T05:21:01.575Z,2.58
2023-07-20T05:23:31.164Z,2.47
2023-07-20T05:26:00.800Z,2.80
2023-07-20T05:28:30.410Z,2.90
2023-07-20T05:31:00.972Z,2.67
2023-07-20T05:33:33.166Z,2.80
2023-07-20T05:36:02.747Z,2.70
2023-07-20T05:38:32.331Z,2.60
2023-07-20T05:41:03.798Z,2.75
2023-07-20T05:43:33.414Z,2.70
2023-07-20T05:46:03.069Z,2.72
2023-07-20T05:48:36.692Z,2.80
2023-07-20T05:51:06.769Z,2.83
2023-07-20T05:53:36.385Z,2.90
2023-07-20T05:56:06.398Z,2.85
2023-07-20T05:58:35.991Z,2.50
2023-07-20T06:01:06.983Z,2.70
2023-07-20T06:03:39.284Z,2.60
2023-07-20T06:06:10.574Z,2.40
2023-07-20T06:08:40.249Z,2.30
2023-07-20T06:11:09.827Z,2.20
2023-07-20T06:13:39.426Z,2.30
2023-07-20T06:16:09.102Z,2.47
2023-07-20T06:18:41.319Z,2.30
2023-07-20T06:21:10.929Z,2.40
2023-07-20T06:23:40.501Z,2.33
2023-07-20T06:26:10.094Z,2.72
2023-07-20T06:28:39.746Z,2.60
2023-07-20T06:31:09.359Z,2.65
2023-07-20T06:33:41.614Z,2.60
2023-07-20T06:36:11.230Z,2.60
2023-07-20T06:38:41.625Z,2.30
2023-07-20T06:46:16.708Z,2.78
2023-07-20T06:51:22.251Z,2.50
2023-07-20T06:53:52.000Z,2.42
2023-07-20T06:56:23.619Z,2.40
2023-07-20T06:58:55.491Z,2.53
2023-07-20T07:01:25.310Z,2.50
2023-07-20T07:03:57.948Z,2.53
2023-07-20T07:06:29.301Z,2.60
2023-07-20T07:08:59.482Z,2.72
2023-07-20T07:11:29.170Z,2.80
2023-07-20T07:13:58.781Z,2.55
2023-07-20T07:16:28.633Z,2.60
2023-07-20T07:19:02.670Z,2.33
2023-07-20T07:21:32.337Z,2.60
2023-07-20T07:24:01.936Z,2.63
2023-07-20T07:26:31.500Z,2.67
2023-07-20T07:29:01.075Z,2.40
2023-07-20T07:31:30.935Z,2.47
2023-07-20T07:34:03.570Z,2.50
2023-07-20T07:36:33.163Z,2.40
2023-07-20T07:39:33.476Z,2.40
2023-07-20T07:41:52.571Z,2.38
2023-07-20T07:44:22.700Z,2.23
2023-07-20T07:46:53.180Z,2.25
2023-07-20T07:49:25.422Z,2.50
2023-07-20T07:51:55.020Z,2.53
2023-07-20T07:54:24.591Z,2.38
2023-07-20T07:56:55.236Z,2.25
2023-07-20T07:59:24.836Z,2.17
2023-07-20T08:01:54.745Z,2.30
2023-07-20T08:04:26.898Z,2.40
2023-07-20T08:06:56.548Z,2.40
2023-07-20T08:09:26.166Z,2.30
2023-07-20T08:11:55.784Z,2.38
2023-07-20T08:14:26.015Z,2.30
2023-07-20T08:16:55.664Z,2.20
2023-07-20T08:19:28.012Z,2.10
2023-07-20T08:21:57.624Z,2.40
2023-07-20T08:24:27.243Z,2.10
2023-07-20T08:26:56.872Z,2.30
2023-07-20T08:29:26.494Z,2.38
2023-07-20T08:31:56.096Z,2.50
2023-07-20T08:34:31.803Z,2.40
2023-07-20T08:37:02.333Z,2.40
2023-07-20T08:39:31.935Z,2.50
2023-07-20T08:42:05.544Z,2.58
2023-07-20T08:44:35.741Z,2.40
2023-07-20T08:47:05.953Z,2.40
2023-07-20T08:49:38.420Z,2.28
2023-07-20T08:52:08.324Z,2.30
2023-07-20T08:54:38.188Z,2.37
2023-07-20T08:57:08.961Z,2.40
2023-07-20T09:02:08.512Z,2.40
2023-07-20T09:04:40.752Z,2.15
2023-07-20T09:07:10.348Z,2.28
2023-07-20T09:09:43.864Z,2.42
2023-07-20T09:12:17.681Z,2.67
2023-07-20T09:14:47.585Z,2.60
2023-07-20T09:17:18.604Z,2.05
2023-07-20T09:19:53.882Z,2.30
2023-07-20T09:22:23.471Z,2.88
2023-07-20T09:24:53.202Z,2.55
2023-07-20T09:27:22.871Z,2.50
2023-07-20T09:29:53.149Z,2.63
2023-07-20T09:32:25.367Z,2.30
2023-07-20T09:38:23.128Z,2.50
2023-07-20T09:50:59.422Z,2.35
2023-07-20T09:53:29.734Z,2.58
2023-07-20T09:55:59.331Z,2.30
2023-07-20T09:58:28.984Z,2.50
2023-07-20T10:00:58.679Z,2.28
2023-07-20T10:03:35.492Z,2.20
2023-07-20T10:06:10.929Z,2.30
2023-07-20T10:11:15.951Z,2.30
2023-07-20T10:13:46.079Z,2.13
2023-07-20T10:16:18.704Z,2.03
2023-07-20T10:18:52.493Z,2.00
2023-07-20T10:23:58.850Z,2.20
2023-07-20T10:26:28.761Z,2.00
2023-07-20T10:28:58.314Z,1.92
2023-07-20T10:31:30.261Z,2.15
2023-07-20T10:34:00.666Z,2.10
2023-07-20T10:36:32.866Z,1.95
2023-07-20T10:39:02.588Z,1.80
2023-07-20T10:41:32.864Z,1.90
2023-07-20T10:44:05.452Z,1.98
2023-07-20T10:46:39.062Z,2.00
2023-07-20T10:49:09.029Z,1.73
2023-07-20T10:51:45.587Z,2.00
2023-07-20T10:54:39.545Z,2.10
2023-07-20T10:57:28.419Z,2.20
2023-07-20T11:00:00.650Z,2.00
2023-07-20T11:02:30.274Z,2.00
2023-07-20T11:05:02.483Z,1.90
2023-07-20T11:07:42.901Z,3.35
2023-07-20T11:10:20.119Z,2.10
2023-07-20T11:13:20.482Z,1.85
2023-07-20T11:15:50.929Z,1.98
2023-07-20T11:18:20.651Z,1.90
2023-07-20T11:20:54.271Z,1.98
2023-07-20T11:23:26.476Z,1.90
2023-07-20T11:25:56.094Z,2.00
2023-07-20T11:28:25.983Z,2.00
2023-07-20T11:30:56.413Z,1.93
2023-07-20T11:33:26.092Z,1.98
2023-07-20T11:35:55.663Z,2.05
2023-07-20T11:38:27.862Z,2.10
2023-07-20T11:40:57.448Z,1.90
2023-07-20T11:43:27.362Z,1.90
2023-07-20T11:45:56.949Z,1.83
2023-07-20T11:48:26.535Z,1.90
2023-07-20T11:50:56.319Z,3.97
2023-07-20T11:53:28.568Z,1.90
2023-07-20T11:55:58.301Z,1.90
2023-07-20T11:58:28.053Z,1.80
2023-07-20T12:00:57.661Z,1.60
2023-07-20T12:03:27.272Z,1.80
2023-07-20T12:06:01.788Z,1.73
2023-07-20T12:08:34.523Z,1.90
2023-07-20T12:11:04.160Z,1.90
2023-07-20T12:13:40.838Z,2.00
2023-07-20T12:16:15.776Z,1.80
2023-07-20T12:18:45.712Z,1.90
2023-07-20T12:21:15.287Z,1.83
2023-07-20T12:23:47.507Z,1.80
2023-07-20T12:26:18.087Z,1.60
2023-07-20T12:28:47.696Z,1.77
2023-07-20T12:31:17.299Z,1.92
2023-07-20T12:33:46.986Z,1.60
2023-07-20T12:36:16.554Z,1.67
2023-07-20T12:38:48.715Z,1.60
2023-07-20T12:41:18.791Z,1.80
2023-07-20T12:43:48.693Z,1.60
2023-07-20T12:46:18.356Z,1.80
2023-07-20T12:48:50.044Z,1.50
2023-07-20T12:51:19.957Z,1.70
2023-07-20T12:53:52.138Z,1.65
2023-07-20T12:58:54.219Z,1.70
2023-07-20T13:01:25.570Z,1.60
2023-07-20T13:06:28.831Z,1.48
2023-07-20T13:09:03.904Z,1.60
2023-07-20T13:11:33.477Z,1.60
2023-07-20T13:14:03.084Z,1.60
2023-07-20T13:16:32.670Z,1.80
2023-07-20T13:19:02.268Z,1.80
2023-07-20T13:21:31.857Z,1.60
2023-07-20T13:24:05.483Z,1.73
2023-07-20T13:26:36.753Z,1.60
2023-07-20T13:29:06.644Z,1.50
2023-07-20T13:31:36.600Z,1.80
2023-07-20T13:34:08.446Z,1.67
2023-07-20T13:36:38.504Z,1.80
2023-07-20T13:39:10.662Z,1.90
2023-07-20T13:41:40.347Z,2.00
2023-07-20T13:44:09.926Z,1.90
2023-07-20T13:49:22.849Z,1.90
2023-07-20T13:54:28.113Z,1.90
2023-07-20T13:56:57.732Z,1.80
2023-07-20T13:59:27.361Z,1.90
2023-07-20T14:04:30.372Z,1.90
2023-07-20T14:07:00.175Z,2.13
2023-07-20T14:09:32.423Z,2.00
2023-07-20T14:14:34.486Z,1.98
2023-07-20T14:17:04.092Z,1.90
2023-07-20T14:19:33.730Z,1.90
2023-07-20T14:22:04.851Z,1.90
2023-07-20T14:24:37.026Z,2.00
2023-07-20T14:27:07.148Z,1.80
2023-07-20T14:29:37.653Z,1.70
2023-07-20T14:32:08.795Z,1.80
2023-07-20T14:34:39.962Z,1.88
2023-07-20T14:37:09.882Z,1.98
2023-07-20T14:39:42.033Z,1.75
2023-07-20T14:42:11.854Z,1.90
2023-07-20T14:44:41.669Z,1.90
2023-07-20T14:47:15.127Z,1.80
2023-07-20T14:49:45.480Z,1.88
2023-07-20T14:52:17.012Z,1.90
2023-07-20T14:54:49.650Z,1.75
2023-07-20T14:57:19.206Z,1.80
2023-07-20T14:59:48.783Z,1.80
2023-07-20T15:02:18.344Z,2.00
2023-07-20T15:04:52.083Z,1.60
2023-07-20T15:07:22.753Z,1.85
2023-07-20T15:09:54.981Z,1.80
2023-07-20T15:12:24.572Z,1.70
2023-07-20T15:15:06.422Z,2.40
2023-07-20T15:17:36.145Z,1.90
2023-07-20T15:20:06.243Z,2.00
2023-07-20T15:22:36.866Z,2.00
2023-07-20T15:27:48.077Z,2.08
2023-07-20T15:35:25.515Z,2.00
2023-07-20T15:37:55.178Z,1.90
2023-07-20T15:40:27.417Z,1.92
2023-07-20T15:42:56.992Z,1.73
2023-07-20T15:45:26.594Z,2.40
2023-07-20T15:47:56.226Z,2.20
2023-07-20T15:50:26.018Z,2.42
2023-07-20T15:52:58.343Z,2.05
2023-07-20T15:55:30.855Z,1.90
2023-07-20T15:58:00.403Z,2.20
2023-07-20T16:00:30.153Z,2.17
2023-07-20T16:02:59.992Z,2.13
2023-07-20T16:05:32.522Z,1.97
2023-07-20T16:08:02.432Z,2.00
2023-07-20T16:13:04.678Z,1.90
2023-07-20T16:18:07.537Z,1.90
2023-07-20T16:20:37.166Z,2.50
2023-07-20T16:23:07.638Z,3.40
2023-07-20T16:25:39.785Z,2.55
2023-07-20T16:28:10.985Z,1.90
2023-07-20T16:30:40.897Z,1.73
2023-07-20T16:33:10.537Z,1.88
2023-07-20T16:38:14.189Z,1.75
2023-07-20T16:44:05.830Z,2.03
2023-07-20T16:51:14.418Z,2.50
2023-07-20T16:53:44.426Z,3.22
2023-07-20T16:56:16.597Z,2.33
2023-07-20T16:58:46.145Z,2.17
2023-07-20T17:01:16.203Z,2.70
2023-07-20T17:03:45.888Z,1.92
2023-07-20T17:06:15.776Z,1.63
2023-07-20T17:08:45.331Z,1.90
2023-07-20T17:11:17.588Z,1.90
2023-07-20T17:13:47.168Z,1.90
2023-07-20T17:16:17.689Z,1.70
2023-07-20T17:18:47.290Z,1.67
2023-07-20T17:21:17.176Z,1.60
2023-07-20T17:28:55.021Z,1.70
2023-07-20T17:31:29.213Z,1.70
2023-07-20T17:34:00.718Z,1.80
2023-07-20T17:39:03.173Z,1.80
2023-07-20T17:41:35.360Z,1.77
2023-07-20T17:44:04.967Z,2.08
2023-07-20T17:49:07.561Z,1.90
2023-07-20T17:51:37.150Z,1.80
2023-07-20T17:54:06.936Z,1.90
2023-07-20T17:56:39.129Z,1.92
2023-07-20T17:59:08.683Z,1.95
2023-07-20T18:01:38.306Z,1.90
2023-07-20T18:04:09.344Z,1.80
2023-07-20T18:06:39.194Z,1.75
2023-07-20T18:09:10.700Z,1.88
2023-07-20T18:11:42.855Z,1.70
2023-07-20T18:14:12.439Z,1.85
2023-07-20T18:16:42.082Z,1.85
2023-07-20T18:19:11.688Z,1.90
2023-07-20T18:21:41.280Z,1.60
2023-07-20T18:24:10.917Z,1.52
2023-07-20T18:26:43.082Z,1.70
2023-07-20T18:29:12.658Z,1.70
2023-07-20T18:31:42.431Z,1.90
2023-07-20T18:34:12.042Z,1.92
2023-07-20T18:36:41.602Z,1.80
2023-07-20T18:39:11.262Z,1.67
2023-07-20T18:41:43.653Z,1.70
2023-07-20T18:44:13.353Z,1.80
2023-07-20T18:46:43.756Z,1.90
2023-07-20T18:49:13.321Z,1.88
2023-07-20T18:51:42.911Z,1.90
2023-07-20T18:54:12.637Z,1.83
2023-07-20T18:56:45.059Z,1.90
2023-07-20T18:59:14.625Z,1.70
2023-07-20T19:01:44.267Z,1.90
2023-07-20T19:04:13.843Z,1.70
2023-07-20T19:06:43.644Z,1.70
2023-07-20T19:09:13.387Z,1.80
2023-07-20T19:14:18.018Z,1.73
2023-07-20T19:16:47.641Z,1.92
2023-07-20T19:19:21.319Z,1.90
2023-07-20T19:21:51.023Z,2.22
2023-07-20T19:24:20.795Z,1.90
2023-07-20T19:26:52.962Z,2.60
2023-07-20T19:29:22.528Z,2.60
2023-07-20T19:31:52.105Z,2.00
2023-07-20T19:34:21.665Z,2.22
2023-07-20T19:36:51.549Z,2.00
2023-07-20T19:39:21.189Z,1.93
2023-07-20T19:41:53.364Z,1.80
2023-07-20T19:44:23.742Z,2.08
2023-07-20T19:46:53.513Z,2.00
2023-07-20T19:49:23.122Z,2.10
2023-07-20T19:51:52.848Z,1.90
2023-07-20T19:56:57.518Z,1.90
2023-07-20T19:59:27.186Z,1.90
2023-07-20T20:01:56.797Z,2.00
2023-07-20T20:06:58.941Z,1.90
2023-07-20T20:09:28.766Z,2.05
2023-07-20T20:12:00.892Z,1.80
2023-07-20T20:14:30.493Z,1.90
2023-07-20T20:17:00.129Z,1.90
2023-07-20T20:19:29.734Z,1.80
2023-07-20T20:22:02.065Z,1.80
2023-07-20T20:24:32.148Z,2.00
2023-07-20T20:27:05.645Z,2.00
2023-07-20T20:29:36.603Z,1.90
2023-07-20T20:32:06.676Z,1.92
2023-07-20T20:34:36.256Z,1.80
2023-07-20T20:37:05.814Z,2.00
2023-07-20T20:39:35.383Z,2.00
2023-07-20T20:42:08.401Z,2.00
2023-07-20T20:44:38.224Z,2.00
2023-07-20T20:47:08.863Z,2.28
2023-07-20T20:49:46.086Z,2.05
2023-07-20T20:52:15.867Z,2.20
2023-07-20T20:54:45.606Z,2.03
2023-07-20T20:57:18.744Z,2.10
2023-07-20T20:59:48.970Z,2.05
2023-07-20T21:02:19.852Z,2.07
2023-07-20T21:09:50.188Z,2.20
2023-07-20T21:12:22.535Z,2.40
2023-07-20T21:14:52.114Z,1.98
2023-07-20T21:17:21.724Z,1.90
2023-07-20T21:19:51.486Z,1.98
2023-07-20T21:22:21.043Z,2.03
2023-07-20T21:24:50.719Z,1.92
2023-07-20T21:27:22.966Z,1.90
2023-07-20T21:29:52.702Z,2.08
2023-07-20T21:32:22.848Z,2.10
2023-07-20T21:34:52.469Z,1.90
2023-07-20T21:37:22.134Z,2.00
2023-07-20T21:39:51.711Z,2.15
2023-07-20T21:42:23.968Z,1.95
2023-07-20T21:44:53.786Z,1.90
2023-07-20T21:47:23.403Z,2.20
2023-07-20T21:49:52.752Z,2.00
2023-07-20T21:52:22.315Z,2.00
2023-07-20T21:54:53.507Z,2.20
2023-07-20T21:57:26.083Z,2.00
2023-07-20T21:59:55.640Z,2.20
2023-07-20T22:02:25.481Z,2.00
2023-07-20T22:04:55.487Z,1.93
2023-07-20T22:07:25.214Z,1.73
2023-07-20T22:09:54.777Z,1.90
2023-07-20T22:12:27.218Z,1.90
2023-07-20T22:14:56.974Z,1.90
2023-07-20T22:17:26.577Z,2.03
2023-07-20T22:19:56.313Z,2.40
2023-07-20T22:22:25.903Z,1.90
2023-07-20T22:24:56.052Z,1.85
2023-07-20T22:27:28.502Z,1.90
2023-07-20T22:29:58.073Z,1.90
2023-07-20T22:32:27.694Z,1.95
2023-07-20T22:34:57.378Z,2.10
2023-07-20T22:37:26.974Z,1.92
2023-07-20T22:39:56.582Z,2.28
2023-07-20T22:42:28.746Z,2.00
2023-07-20T22:44:58.415Z,2.00
2023-07-20T22:47:28.090Z,2.00
2023-07-20T22:49:58.832Z,1.90
2023-07-20T22:52:28.420Z,2.10
2023-07-20T22:54:58.126Z,2.20
2023-07-20T22:57:30.261Z,2.10
2023-07-20T23:00:01.613Z,2.10
2023-07-20T23:02:31.869Z,2.20
2023-07-20T23:05:01.725Z,2.20
2023-07-20T23:07:32.403Z,2.42
2023-07-20T23:10:02.895Z,2.30
2023-07-20T23:12:35.109Z,2.30
2023-07-20T23:15:05.195Z,2.28
2023-07-20T23:17:34.777Z,2.10
2023-07-20T23:20:04.810Z,2.30
2023-07-20T23:22:34.652Z,2.27
2023-07-20T23:25:04.426Z,2.40
2023-07-20T23:27:36.633Z,2.40
2023-07-20T23:30:06.395Z,2.40
2023-07-20T23:32:36.028Z,2.30
2023-07-20T23:35:05.676Z,2.30
2023-07-20T23:37:35.274Z,2.10
2023-07-20T23:40:09.910Z,2.40
2023-07-20T23:42:43.272Z,2.40
2023-07-20T23:45:15.276Z,2.20
2023-07-20T23:47:45.051Z,2.58
2023-07-20T23:50:17.933Z,2.50
2023-07-20T23:52:47.555Z,2.40
2023-07-20T23:55:17.406Z,2.42
2023-07-20T23:57:49.805Z,2.42
